Time;durP1;ratioP1;P1;durP2;ratioP2;P2;SDS_P1;SDS_P2;PMS_P1;PMS_P2;Temp;Humidity;BMP_temperature;BMP_pressure;BME280_temperature;BME280_humidity;BME280_pressure;Samples;Min_cycle;Max_cycle;Signal;HPM_P1;HPM_P2
2023/06/20 00:02:01;;;;;;;13.10;5.20;;;;;;;14.88;100.00;100728.71;108538;1253;60531;-85
2023/06/20 00:04:28;;;;;;;8.70;5.00;;;;;;;14.87;100.00;100734.12;108433;1250;59131;-85
2023/06/20 00:06:56;;;;;;;8.30;5.00;;;;;;;14.86;100.00;100726.79;108202;1250;70988;-84
2023/06/20 00:09:22;;;;;;;11.00;5.20;;;;;;;14.85;100.00;100723.69;106727;1251;62659;-85
2023/06/20 00:11:50;;;;;;;7.00;4.30;;;;;;;14.85;100.00;100727.91;108802;1249;71227;-83
2023/06/20 00:14:17;;;;;;;6.60;4.70;;;;;;;14.85;100.00;100730.75;107570;1251;60535;-87
2023/06/20 00:16:44;;;;;;;10.60;5.80;;;;;;;14.84;100.00;100733.23;106153;1250;59640;-87
2023/06/20 00:19:10;;;;;;;8.80;5.90;;;;;;;14.83;100.00;100729.45;106195;1252;71899;-86
2023/06/20 00:21:39;;;;;;;14.90;5.90;;;;;;;14.82;100.00;100730.79;106110;1250;63973;-86
2023/06/20 00:24:09;;;;;;;8.10;5.20;;;;;;;14.80;100.00;100727.93;106039;1253;72660;-89
2023/06/20 00:26:39;;;;;;;14.10;5.90;;;;;;;14.76;100.00;100722.77;106071;1250;61849;-87
2023/06/20 00:29:06;;;;;;;12.60;5.80;;;;;;;14.73;100.00;100719.67;106010;1250;60607;-87
2023/06/20 00:31:36;;;;;;;10.60;5.40;;;;;;;14.70;100.00;100714.63;106152;1251;73010;-86
2023/06/20 00:34:03;;;;;;;10.00;5.00;;;;;;;14.66;100.00;100717.55;106072;1253;62579;-85
2023/06/20 00:36:31;;;;;;;8.00;5.80;;;;;;;14.62;100.00;100715.91;106752;1251;72684;-82
2023/06/20 00:38:57;;;;;;;11.90;5.80;;;;;;;14.59;100.00;100717.07;106985;1251;61688;-83
2023/06/20 00:41:24;;;;;;;8.50;6.00;;;;;;;14.56;100.00;100716.90;106130;1253;60212;-83
2023/06/20 00:43:51;;;;;;;8.40;4.90;;;;;;;14.54;100.00;100719.36;105868;1251;71741;-86
2023/06/20 00:46:23;;;;;;;10.40;4.60;;;;;;;14.51;100.00;100718.45;106133;1253;63851;-87
2023/06/20 00:48:53;;;;;;;10.90;5.20;;;;;;;14.48;100.00;100720.77;106074;1251;71675;-88
2023/06/20 00:51:20;;;;;;;7.00;5.10;;;;;;;14.45;100.00;100721.21;105935;1256;62013;-88
2023/06/20 00:53:47;;;;;;;10.00;5.50;;;;;;;14.41;100.00;100717.09;105802;1251;59637;-85
2023/06/20 00:56:15;;;;;;;7.80;5.00;;;;;;;14.37;100.00;100722.02;106038;1256;73159;-85
2023/06/20 00:58:45;;;;;;;8.20;5.00;;;;;;;14.31;100.00;100721.69;106352;1254;63792;-87
2023/06/20 01:01:16;;;;;;;7.80;5.20;;;;;;;14.27;100.00;100722.52;106205;1251;71358;-85
2023/06/20 01:03:46;;;;;;;7.50;4.90;;;;;;;14.24;100.00;100725.38;106018;1254;61619;-86
2023/06/20 01:06:25;;;;;;;9.40;5.80;;;;;;;14.21;100.00;100728.08;106133;1251;59975;-86
2023/06/20 01:09:02;;;;;;;9.30;5.40;;;;;;;14.18;100.00;100733.23;106126;1253;72135;-86
2023/06/20 01:11:53;;;;;;;6.30;5.60;;;;;;;14.15;100.00;100738.05;106264;1251;62154;-84
2023/06/20 01:14:30;;;;;;;10.90;5.60;;;;;;;14.12;100.00;100737.88;106913;1250;72663;-84
2023/06/20 01:17:03;;;;;;;8.10;5.30;;;;;;;14.10;100.00;100741.55;106192;1251;62031;-88
2023/06/20 01:19:49;;;;;;;8.90;5.30;;;;;;;14.08;100.00;100739.41;105908;1250;60249;-85
2023/06/20 01:22:47;;;;;;;7.60;5.60;;;;;;;14.06;100.00;100740.39;106142;1251;71788;-85
2023/06/20 01:25:46;;;;;;;6.70;5.50;;;;;;;14.04;100.00;100739.71;106145;1249;63942;-86
2023/06/20 01:28:35;;;;;;;7.60;6.20;;;;;;;14.01;100.00;100741.33;106100;1250;72731;-86
2023/06/20 01:31:08;;;;;;;9.10;5.60;;;;;;;13.98;100.00;100745.21;106139;1251;60763;-87
2023/06/20 01:34:11;;;;;;;9.40;6.30;;;;;;;13.95;100.00;100745.46;106076;1253;59933;-87
2023/06/20 01:36:39;;;;;;;6.80;6.10;;;;;;;13.92;100.00;100746.77;105928;1255;73186;-87
2023/06/20 01:39:17;;;;;;;8.40;6.30;;;;;;;13.88;100.00;100749.60;106089;1251;62586;-86
2023/06/20 01:41:44;;;;;;;17.40;6.90;;;;;;;13.87;100.00;100752.19;106058;1251;72965;-84
2023/06/20 01:44:13;;;;;;;7.30;5.80;;;;;;;13.85;100.00;100747.02;105901;1257;60556;-84
2023/06/20 01:46:40;;;;;;;9.00;6.20;;;;;;;13.86;100.00;100748.40;106011;1257;60523;-87
2023/06/20 01:49:06;;;;;;;8.40;5.50;;;;;;;13.85;100.00;100747.54;106127;1251;72621;-86
2023/06/20 01:51:35;;;;;;;13.10;6.50;;;;;;;13.85;100.00;100744.58;106122;1255;63627;-85
2023/06/20 01:54:03;;;;;;;8.50;6.30;;;;;;;13.84;100.00;100742.01;106033;1251;72791;-88
2023/06/20 01:56:30;;;;;;;9.90;6.20;;;;;;;13.84;100.00;100744.30;105862;1256;61910;-87
2023/06/20 01:58:58;;;;;;;7.10;5.10;;;;;;;13.84;100.00;100747.14;105953;1257;60590;-85
2023/06/20 02:01:26;;;;;;;9.70;5.60;;;;;;;13.82;100.00;100749.85;106095;1251;73901;-84
2023/06/20 02:03:54;;;;;;;7.00;5.40;;;;;;;13.81;100.00;100749.40;106179;1251;63800;-85
2023/06/20 02:06:22;;;;;;;7.00;6.10;;;;;;;13.80;100.00;100745.80;106031;1251;72681;-85
2023/06/20 02:08:50;;;;;;;11.10;6.20;;;;;;;13.79;100.00;100740.83;105997;1251;62446;-87
2023/06/20 02:11:19;;;;;;;14.20;7.50;;;;;;;13.78;100.00;100739.84;106153;1249;60459;-88
2023/06/20 02:13:47;;;;;;;11.90;7.60;;;;;;;13.76;100.00;100738.05;106041;1251;73836;-87
2023/06/20 02:16:14;;;;;;;15.00;8.60;;;;;;;13.75;100.00;100741.11;106148;1253;64804;-87
2023/06/20 02:18:41;;;;;;;14.30;7.40;;;;;;;13.74;100.00;100740.64;106079;1251;71256;-86
2023/06/20 02:21:10;;;;;;;11.70;8.00;;;;;;;13.73;100.00;100746.30;106110;1251;60629;-84
2023/06/20 02:23:37;;;;;;;12.80;7.70;;;;;;;13.74;100.00;100741.36;106089;1251;60524;-87
2023/06/20 02:26:08;;;;;;;11.60;7.60;;;;;;;13.75;100.00;100740.23;105739;1258;73845;-86
2023/06/20 02:28:44;;;;;;;14.50;6.80;;;;;;;13.76;100.00;100743.09;105940;1251;62783;-86
2023/06/20 02:31:19;;;;;;;9.60;7.70;;;;;;;13.78;100.00;100739.61;106017;1253;70634;-87
2023/06/20 02:33:51;;;;;;;9.60;7.70;;;;;;;13.80;100.00;100740.72;105864;1251;60436;-84
2023/06/20 02:36:25;;;;;;;11.30;8.30;;;;;;;13.81;100.00;100743.98;106354;1253;60434;-85
2023/06/20 02:38:53;;;;;;;16.40;8.70;;;;;;;13.81;100.00;100741.18;106428;1252;73818;-87
2023/06/20 02:41:22;;;;;;;10.30;9.00;;;;;;;13.81;100.00;100746.95;106275;1250;62519;-86
2023/06/20 02:43:49;;;;;;;15.30;9.00;;;;;;;13.83;100.00;100747.40;106138;1250;72467;-87
2023/06/20 02:46:21;;;;;;;13.00;9.00;;;;;;;13.85;100.00;100746.18;106009;1251;60595;-86
2023/06/20 02:49:20;;;;;;;13.60;9.60;;;;;;;13.87;100.00;100746.88;107055;1250;60433;-85
2023/06/20 02:52:09;;;;;;;15.80;9.20;;;;;;;13.91;100.00;100746.98;109529;1250;72438;-86
2023/06/20 02:54:54;;;;;;;17.20;9.70;;;;;;;13.95;100.00;100749.70;108347;1251;62552;-86
2023/06/20 02:57:21;;;;;;;16.50;10.90;;;;;;;14.00;100.00;100749.14;106424;1256;71158;-86
2023/06/20 02:59:53;;;;;;;15.10;10.40;;;;;;;14.04;100.00;100751.45;106142;1257;62082;-88
2023/06/20 03:02:20;;;;;;;23.40;15.80;;;;;;;14.10;100.00;100755.26;106155;1253;60350;-90
2023/06/20 03:04:47;;;;;;;16.90;10.00;;;;;;;14.15;100.00;100754.02;105836;1252;73846;-88
2023/06/20 03:07:14;;;;;;;12.10;8.50;;;;;;;14.20;100.00;100756.83;105945;1257;62423;-89
2023/06/20 03:09:41;;;;;;;13.30;10.10;;;;;;;14.25;100.00;100755.38;106012;1252;72467;-87
2023/06/20 03:12:08;;;;;;;15.80;10.80;;;;;;;14.30;100.00;100759.08;105936;1256;64238;-86
2023/06/20 03:14:35;;;;;;;13.80;11.00;;;;;;;14.35;100.00;100758.52;106020;1250;61217;-88
2023/06/20 03:17:03;;;;;;;17.20;11.40;;;;;;;14.41;100.00;100758.48;106109;1251;73833;-87
2023/06/20 03:19:32;;;;;;;18.00;11.10;;;;;;;14.46;100.00;100763.68;106069;1251;62717;-89
2023/06/20 03:22:00;;;;;;;13.10;10.20;;;;;;;14.52;100.00;100765.00;106056;1251;71445;-88
2023/06/20 03:24:27;;;;;;;24.30;11.50;;;;;;;14.59;100.00;100764.00;106149;1251;62115;-87
2023/06/20 03:26:53;;;;;;;19.30;11.90;;;;;;;14.66;100.00;100766.16;106094;1256;60339;-85
2023/06/20 03:29:20;;;;;;;21.30;11.40;;;;;;;14.72;100.00;100769.56;106043;1251;73252;-88
2023/06/20 03:31:48;;;;;;;21.40;13.70;;;;;;;14.80;100.00;100772.16;106021;1253;64027;-88
2023/06/20 03:34:15;;;;;;;31.10;19.40;;;;;;;14.87;100.00;100771.94;106015;1257;72564;-86
2023/06/20 03:36:45;;;;;;;26.40;16.70;;;;;;;14.96;100.00;100774.82;105920;1257;61862;-88
2023/06/20 03:39:12;;;;;;;29.50;19.60;;;;;;;15.04;100.00;100775.27;106089;1250;60543;-89
2023/06/20 03:41:39;;;;;;;26.70;19.50;;;;;;;15.12;100.00;100774.26;106123;1254;72978;-85
2023/06/20 03:44:08;;;;;;;34.80;18.90;;;;;;;15.21;100.00;100774.45;106093;1251;63644;-89
2023/06/20 03:46:35;;;;;;;23.70;17.70;;;;;;;15.29;100.00;100781.91;106241;1251;72705;-84
2023/06/20 03:49:02;;;;;;;33.50;18.20;;;;;;;15.40;100.00;100782.04;106005;1251;60770;-84
2023/06/20 03:51:30;;;;;;;23.30;15.00;;;;;;;15.49;100.00;100790.43;106078;1251;60402;-89
2023/06/20 03:53:56;;;;;;;24.90;18.10;;;;;;;15.59;100.00;100789.64;106078;1251;73729;-84
2023/06/20 03:56:23;;;;;;;26.30;17.40;;;;;;;15.69;100.00;100789.94;106048;1255;63831;-83
2023/06/20 03:58:51;;;;;;;20.40;15.40;;;;;;;15.81;100.00;100792.42;106052;1257;72649;-88
2023/06/20 04:01:18;;;;;;;27.40;15.20;;;;;;;15.92;100.00;100793.64;105891;1252;61636;-89
2023/06/20 04:03:44;;;;;;;26.40;15.70;;;;;;;16.03;100.00;100794.30;106103;1255;60488;-86
2023/06/20 04:06:13;;;;;;;23.90;15.50;;;;;;;16.16;100.00;100792.05;106118;1253;72723;-88
2023/06/20 04:08:42;;;;;;;21.80;14.10;;;;;;;16.30;100.00;100792.71;106041;1251;63845;-88
2023/06/20 04:11:09;;;;;;;21.10;13.70;;;;;;;16.45;100.00;100792.33;106092;1253;72564;-86
2023/06/20 04:13:37;;;;;;;27.50;14.80;;;;;;;16.65;100.00;100794.95;105932;1257;61843;-87
2023/06/20 04:16:04;;;;;;;21.80;15.20;;;;;;;16.95;100.00;100792.64;106598;1250;60530;-85
2023/06/20 04:18:34;;;;;;;21.80;13.90;;;;;;;17.34;100.00;100797.66;107686;1254;73892;-86
2023/06/20 04:21:02;;;;;;;19.80;15.00;;;;;;;17.81;100.00;100798.90;107353;1252;62652;-85
2023/06/20 04:23:29;;;;;;;18.00;14.00;;;;;;;18.36;100.00;100808.04;108263;1251;71480;-84
2023/06/20 04:25:55;;;;;;;22.60;13.80;;;;;;;18.93;100.00;100807.66;108684;1250;61316;-84
2023/06/20 04:28:22;;;;;;;18.30;13.80;;;;;;;19.51;100.00;100812.05;107894;1254;60536;-85
2023/06/20 04:30:56;;;;;;;18.50;12.40;;;;;;;20.07;100.00;100817.30;106297;1253;74978;-86
2023/06/20 04:33:23;;;;;;;20.90;13.40;;;;;;;20.58;100.00;100822.06;106252;1250;62401;-87
2023/06/20 04:35:51;;;;;;;22.60;12.50;;;;;;;21.08;100.00;100829.51;106071;1252;72585;-86
2023/06/20 04:38:20;;;;;;;21.00;11.80;;;;;;;21.59;100.00;100835.95;106084;1253;62126;-88
2023/06/20 04:40:47;;;;;;;16.70;12.10;;;;;;;22.15;100.00;100845.42;106036;1251;60549;-88
2023/06/20 04:43:15;;;;;;;15.10;11.30;;;;;;;22.69;100.00;100846.42;106054;1253;73826;-87
2023/06/20 04:45:41;;;;;;;15.80;10.30;;;;;;;23.18;98.39;100846.79;106168;1251;63723;-90
2023/06/20 04:48:09;;;;;;;22.80;11.50;;;;;;;23.64;95.47;100845.50;106064;1252;71289;-87
2023/06/20 04:50:38;;;;;;;15.00;10.20;;;;;;;24.06;93.52;100843.78;106161;1253;60524;-89
2023/06/20 04:53:04;;;;;;;16.10;11.00;;;;;;;24.48;91.77;100841.66;106007;1250;60504;-86
2023/06/20 04:55:32;;;;;;;16.40;9.60;;;;;;;24.89;89.92;100845.02;106128;1251;73606;-87
2023/06/20 04:58:04;;;;;;;12.20;9.80;;;;;;;25.29;87.44;100842.77;106151;1253;63616;-86
2023/06/20 05:00:37;;;;;;;13.30;10.40;;;;;;;25.63;84.55;100841.08;106252;1251;72708;-87
2023/06/20 05:03:04;;;;;;;14.70;9.30;;;;;;;25.96;81.50;100845.91;108693;1249;60335;-86
2023/06/20 05:05:32;;;;;;;13.40;9.90;;;;;;;26.23;79.16;100845.97;109104;1250;60382;-86
2023/06/20 05:07:59;;;;;;;18.10;11.30;;;;;;;26.50;76.09;100844.93;106778;1250;72497;-85
2023/06/20 05:10:26;;;;;;;15.80;10.80;;;;;;;26.75;73.99;100838.83;106531;1251;63849;-87
2023/06/20 05:12:54;;;;;;;17.00;10.90;;;;;;;26.85;67.54;100842.89;106957;1249;72391;-85
2023/06/20 05:15:23;;;;;;;16.30;11.00;;;;;;;26.92;67.33;100842.23;106728;1251;60571;-87
2023/06/20 05:17:51;;;;;;;20.30;11.80;;;;;;;27.06;65.52;100845.17;106176;1251;60479;-86
2023/06/20 05:20:18;;;;;;;18.10;11.70;;;;;;;27.21;64.72;100843.52;106130;1253;72840;-87
2023/06/20 05:22:45;;;;;;;14.60;11.70;;;;;;;27.37;62.60;100843.93;106099;1250;63804;-88
2023/06/20 05:25:12;;;;;;;17.70;11.00;;;;;;;27.45;60.70;100845.06;106027;1253;72622;-86
2023/06/20 05:27:39;;;;;;;19.30;11.30;;;;;;;27.51;58.72;100842.66;106034;1252;60514;-89
2023/06/20 05:30:06;;;;;;;16.40;10.80;;;;;;;27.64;58.80;100840.24;105951;1251;60450;-86
2023/06/20 05:32:33;;;;;;;16.60;10.80;;;;;;;27.81;55.81;100839.64;106050;1251;74321;-86
2023/06/20 05:35:01;;;;;;;14.00;10.70;;;;;;;27.95;53.69;100844.20;106041;1251;62654;-89
2023/06/20 05:37:31;;;;;;;22.50;11.10;;;;;;;28.07;52.54;100841.42;106094;1251;72865;-87
2023/06/20 05:39:57;;;;;;;24.30;11.80;;;;;;;28.28;53.86;100843.77;105990;1253;60345;-87
2023/06/20 05:42:28;;;;;;;19.60;10.40;;;;;;;28.60;52.56;100844.77;106365;1251;60550;-85
2023/06/20 05:44:54;;;;;;;14.10;10.00;;;;;;;28.83;50.44;100843.48;106915;1253;72654;-86
2023/06/20 05:47:21;;;;;;;16.30;9.60;;;;;;;29.04;48.92;100841.04;106282;1253;62680;-88
2023/06/20 05:49:48;;;;;;;19.90;10.90;;;;;;;29.37;47.16;100838.90;106416;1251;72488;-89
2023/06/20 05:52:15;;;;;;;15.70;10.10;;;;;;;29.70;45.87;100834.84;106288;1256;60427;-88
2023/06/20 05:54:43;;;;;;;16.80;11.00;;;;;;;30.01;44.56;100838.56;106138;1252;60453;-86
2023/06/20 05:57:10;;;;;;;20.80;11.30;;;;;;;30.29;43.42;100834.35;105913;1257;72529;-88
2023/06/20 05:59:36;;;;;;;21.30;12.20;;;;;;;30.61;43.02;100834.14;106017;1255;64248;-87
2023/06/20 06:02:05;;;;;;;18.90;12.90;;;;;;;30.93;41.85;100834.17;106444;1250;71376;-86
2023/06/20 06:04:33;;;;;;;27.50;12.30;;;;;;;31.21;40.25;100833.21;106790;1253;60555;-86
2023/06/20 06:07:00;;;;;;;22.00;12.80;;;;;;;31.47;39.85;100831.89;106395;1251;60408;-86
2023/06/20 06:09:27;;;;;;;25.50;14.30;;;;;;;31.73;38.91;100825.38;106702;1250;72235;-89
2023/06/20 06:11:55;;;;;;;17.20;12.30;;;;;;;31.93;37.40;100820.20;108917;1251;62994;-87
2023/06/20 06:14:26;;;;;;;17.60;10.00;;;;;;;31.98;36.73;100826.64;109303;1250;71423;-87
2023/06/20 06:16:55;;;;;;;17.80;9.40;;;;;;;31.90;35.80;100823.58;107836;1251;60457;-87
2023/06/20 06:19:28;;;;;;;15.70;8.10;;;;;;;31.87;36.05;100817.74;109296;1250;59196;-89
2023/06/20 06:22:02;;;;;;;15.80;8.10;;;;;;;32.00;36.05;100824.98;106123;1259;73147;-86
2023/06/20 06:24:29;;;;;;;19.20;8.00;;;;;;;32.21;35.73;100823.54;105930;1256;64469;-89
2023/06/20 06:26:56;;;;;;;11.80;7.00;;;;;;;32.41;35.31;100823.58;105796;1254;71617;-89
2023/06/20 06:29:25;;;;;;;14.70;6.30;;;;;;;32.64;34.27;100823.52;105736;1254;60476;-86
2023/06/20 06:31:52;;;;;;;11.10;6.00;;;;;;;32.71;33.41;100822.23;107928;1254;59377;-88
2023/06/20 06:34:20;;;;;;;9.50;5.10;;;;;;;32.73;32.66;100821.80;108335;1254;73981;-88
2023/06/20 06:36:49;;;;;;;12.60;5.00;;;;;;;32.84;32.05;100822.05;106530;1256;62258;-88
2023/06/20 06:39:16;;;;;;;6.70;4.70;;;;;;;32.97;31.85;100825.79;105784;1254;72678;-89
2023/06/20 06:41:44;;;;;;;17.60;5.30;;;;;;;33.01;31.21;100826.92;106649;1253;60498;-87
2023/06/20 06:44:14;;;;;;;6.40;5.00;;;;;;;33.15;31.34;100824.75;106820;1256;60453;-89
2023/06/20 06:46:41;;;;;;;13.60;5.50;;;;;;;33.29;31.26;100827.03;105738;1254;72795;-89
2023/06/20 06:49:08;;;;;;;11.70;5.00;;;;;;;33.38;31.02;100830.02;105851;1254;62801;-91
2023/06/20 06:51:38;;;;;;;11.30;5.00;;;;;;;33.46;29.80;100828.02;105913;1254;72710;-87
2023/06/20 06:54:05;;;;;;;7.10;4.30;;;;;;;33.49;29.10;100831.39;106188;1253;60421;-88
2023/06/20 06:56:34;;;;;;;10.30;4.80;;;;;;;33.53;28.53;100831.69;106209;1251;61597;-87
2023/06/20 06:59:02;;;;;;;11.00;4.60;;;;;;;33.69;29.10;100829.66;106162;1251;72414;-89
2023/06/20 07:01:29;;;;;;;7.10;4.90;;;;;;;33.97;28.92;100828.42;106766;1251;63756;-86
2023/06/20 07:03:59;;;;;;;7.50;4.30;;;;;;;34.24;28.69;100825.86;106914;1254;72800;-88
2023/06/20 07:06:26;;;;;;;6.40;4.80;;;;;;;34.46;28.28;100827.77;106886;1255;60482;-87
2023/06/20 07:08:53;;;;;;;8.00;5.10;;;;;;;34.54;27.29;100828.62;106352;1253;60427;-85
2023/06/20 07:11:20;;;;;;;9.00;5.00;;;;;;;34.61;27.06;100829.29;106273;1257;73715;-87
2023/06/20 07:13:49;;;;;;;12.90;4.90;;;;;;;34.80;27.58;100826.84;106361;1253;63329;-86
2023/06/20 07:16:16;;;;;;;7.40;4.70;;;;;;;34.91;26.56;100826.08;106182;1251;71341;-89
2023/06/20 07:18:43;;;;;;;8.90;8.00;;;;;;;35.09;26.85;100823.85;106236;1253;60463;-88
2023/06/20 07:21:10;;;;;;;11.60;5.60;;;;;;;35.24;26.75;100824.35;106300;1250;60460;-86
2023/06/20 07:23:38;;;;;;;7.50;5.40;;;;;;;35.36;26.17;100820.65;106182;1255;75168;-85
2023/06/20 07:26:04;;;;;;;8.40;4.50;;;;;;;35.59;24.94;100818.43;106055;1251;62540;-87
2023/06/20 07:28:31;;;;;;;9.50;4.90;;;;;;;35.76;24.58;100815.02;106124;1251;72456;-91
2023/06/20 07:30:58;;;;;;;6.90;3.70;;;;;;;35.94;24.90;100808.71;106117;1250;60412;-87
2023/06/20 07:33:25;;;;;;;6.60;4.10;;;;;;;36.08;24.48;100806.23;106013;1250;60433;-90
2023/06/20 07:35:52;;;;;;;5.40;3.40;;;;;;;36.19;24.01;100804.23;106265;1252;73649;-86
2023/06/20 07:38:21;;;;;;;7.50;3.90;;;;;;;36.30;23.31;100806.09;106878;1253;64400;-86
2023/06/20 07:40:49;;;;;;;7.00;4.30;;;;;;;36.39;23.50;100806.34;106475;1253;63764;-87
2023/06/20 07:43:15;;;;;;;8.40;3.60;;;;;;;36.41;23.54;100805.98;106501;1251;60437;-88
2023/06/20 07:45:42;;;;;;;7.40;3.70;;;;;;;36.50;23.43;100802.39;106083;1251;60411;-88
2023/06/20 07:48:09;;;;;;;7.50;4.60;;;;;;;36.65;23.64;100801.05;106005;1251;65236;-88
2023/06/20 07:50:36;;;;;;;5.30;4.00;;;;;;;36.70;23.49;100797.60;106017;1251;60405;-89
2023/06/20 07:53:03;;;;;;;5.20;3.70;;;;;;;36.61;22.65;100797.46;106320;1251;72504;-88
2023/06/20 07:55:30;;;;;;;6.30;3.30;;;;;;;36.55;22.29;100795.33;106291;1251;60587;-85
2023/06/20 07:57:58;;;;;;;4.60;3.20;;;;;;;36.54;21.70;100795.53;106197;1251;60446;-88
2023/06/20 08:00:26;;;;;;;5.20;3.00;;;;;;;36.45;22.17;100795.24;106866;1253;63933;-86
2023/06/20 08:02:52;;;;;;;4.70;3.20;;;;;;;36.43;22.30;100801.63;106262;1253;63920;-87
2023/06/20 08:05:20;;;;;;;4.80;3.50;;;;;;;36.54;22.24;100798.48;106121;1254;73844;-88
2023/06/20 08:07:47;;;;;;;4.80;3.20;;;;;;;36.58;21.97;100794.64;106484;1254;60559;-84
2023/06/20 08:10:19;;;;;;;14.30;3.10;;;;;;;36.64;21.95;100792.91;106333;1251;60457;-88
2023/06/20 08:12:47;;;;;;;5.20;3.00;;;;;;;36.73;21.57;100796.26;106143;1251;64349;-87
2023/06/20 08:15:14;;;;;;;5.70;3.00;;;;;;;36.87;20.46;100791.54;106293;1253;60485;-87
2023/06/20 08:17:40;;;;;;;4.00;3.10;;;;;;;36.99;20.83;100790.69;106392;1251;63755;-88
2023/06/20 08:20:09;;;;;;;4.50;2.80;;;;;;;37.06;20.60;100786.96;106475;1251;60414;-87
2023/06/20 08:22:36;;;;;;;7.20;3.30;;;;;;;37.14;21.16;100783.14;106448;1253;60529;-88
2023/06/20 08:25:04;;;;;;;5.90;4.50;;;;;;;37.17;20.66;100780.48;106590;1251;64734;-88
2023/06/20 08:27:32;;;;;;;4.20;3.50;;;;;;;37.06;20.21;100785.48;107155;1253;60431;-86
2023/06/20 08:29:59;;;;;;;7.00;4.90;;;;;;;37.04;20.63;100786.77;108207;1253;64013;-86
2023/06/20 08:32:26;;;;;;;9.30;3.40;;;;;;;37.04;20.23;100786.72;106720;1250;60431;-86
2023/06/20 08:34:52;;;;;;;5.90;2.80;;;;;;;37.05;20.44;100787.44;106244;1253;60363;-85
2023/06/20 08:37:24;;;;;;;8.00;2.30;;;;;;;37.15;20.93;100786.75;106206;1252;65256;-85
2023/06/20 08:39:51;;;;;;;7.40;3.00;;;;;;;37.30;21.15;100788.75;106788;1251;60657;-86
2023/06/20 08:42:18;;;;;;;2.80;2.50;;;;;;;37.45;20.26;100788.20;107758;1249;64048;-84
2023/06/20 08:44:45;;;;;;;3.80;2.10;;;;;;;37.57;19.40;100786.58;108097;1253;60418;-83
2023/06/20 08:47:24;;;;;;;5.20;2.60;;;;;;;37.64;19.05;100786.27;106354;1251;60418;-87
2023/06/20 08:49:51;;;;;;;3.20;2.20;;;;;;;37.64;18.18;100783.93;108108;1251;64022;-83
2023/06/20 08:52:29;;;;;;;6.10;2.60;;;;;;;37.52;18.20;100782.39;108166;1251;59211;-84
2023/06/20 08:54:56;;;;;;;5.80;2.40;;;;;;;37.47;18.91;100777.33;107128;1251;62558;-86
2023/06/20 08:57:23;;;;;;;8.00;2.90;;;;;;;37.53;19.03;100781.58;106497;1254;60450;-88
2023/06/20 08:59:52;;;;;;;7.90;3.50;;;;;;;37.62;18.65;100782.51;106371;1253;60405;-87
2023/06/20 09:02:21;;;;;;;9.40;2.90;;;;;;;37.72;18.32;100786.47;106292;1252;63778;-89
2023/06/20 09:05:04;;;;;;;6.10;3.60;;;;;;;37.80;18.42;100785.73;106184;1253;60310;-87
2023/06/20 09:07:37;;;;;;;5.00;2.90;;;;;;;37.84;18.38;100787.11;106161;1256;62694;-86
2023/06/20 09:10:07;;;;;;;3.40;3.10;;;;;;;37.85;18.87;100787.77;106417;1251;60546;-87
2023/06/20 09:12:45;;;;;;;4.30;2.50;;;;;;;37.91;19.02;100788.70;106298;1254;60536;-88
2023/06/20 09:15:14;;;;;;;6.00;3.20;;;;;;;37.97;18.83;100785.05;106602;1251;65112;-90
2023/06/20 09:17:42;;;;;;;2.80;2.60;;;;;;;37.97;19.24;100785.98;106575;1253;60426;-87
2023/06/20 09:20:11;;;;;;;4.30;3.10;;;;;;;38.02;19.04;100787.93;106296;1251;63085;-88
2023/06/20 09:22:39;;;;;;;3.70;3.30;;;;;;;38.12;19.36;100785.76;106367;1254;60403;-90
2023/06/20 09:25:07;;;;;;;5.80;2.60;;;;;;;38.17;18.91;100786.85;106256;1252;60421;-87
2023/06/20 09:27:41;;;;;;;7.30;6.70;;;;;;;38.14;18.79;100783.73;106375;1253;63945;-87
2023/06/20 09:30:08;;;;;;;6.30;5.30;;;;;;;37.93;18.66;100788.95;106487;1253;60334;-86
2023/06/20 09:32:40;;;;;;;4.50;3.10;;;;;;;37.79;18.99;100786.28;106757;1257;63927;-89
2023/06/20 09:35:13;;;;;;;3.80;3.50;;;;;;;37.74;19.05;100785.71;106334;1252;60564;-87
2023/06/20 09:37:45;;;;;;;4.30;2.50;;;;;;;37.73;19.41;100783.56;107076;1253;60408;-87
2023/06/20 09:40:14;;;;;;;3.50;3.20;;;;;;;37.71;19.64;100781.98;106834;1253;63706;-88
2023/06/20 09:42:43;;;;;;;4.30;3.20;;;;;;;37.69;19.81;100783.23;107275;1251;60575;-86
2023/06/20 09:45:13;;;;;;;4.50;3.10;;;;;;;37.68;19.64;100781.59;106012;1254;754469;-88
2023/06/20 09:48:45;;;;;;;4.70;3.00;;;;;;;37.81;19.71;100780.63;102741;1293;600006;-90
2023/06/20 09:51:13;;;;;;;4.90;2.90;;;;;;;37.79;19.76;100777.02;104861;1267;59434;-90
2023/06/20 09:53:45;;;;;;;4.40;3.10;;;;;;;37.80;19.68;100774.07;104776;1270;59305;-87
2023/06/20 09:56:12;;;;;;;3.30;3.00;;;;;;;37.83;19.17;100771.12;105075;1272;63767;-90
2023/06/20 09:58:41;;;;;;;3.50;2.70;;;;;;;37.91;19.54;100763.63;104826;1273;59364;-90
2023/06/20 10:01:09;;;;;;;5.60;2.80;;;;;;;37.98;20.01;100764.34;105006;1270;63779;-89
2023/06/20 10:03:39;;;;;;;9.30;8.30;;;;;;;38.04;20.43;100767.66;104508;1270;59918;-86
2023/06/20 10:06:06;;;;;;;10.50;9.70;;;;;;;38.02;20.05;100764.63;105147;1263;59391;-86
2023/06/20 10:08:34;;;;;;;8.30;7.60;;;;;;;38.03;20.06;100763.39;105196;1263;63285;-87
2023/06/20 10:11:02;;;;;;;11.30;10.30;;;;;;;38.02;19.81;100762.06;105098;1264;59240;-88
2023/06/20 10:13:29;;;;;;;3.90;3.30;;;;;;;37.99;19.61;100759.30;105062;1263;64293;-86
2023/06/20 10:15:59;;;;;;;3.00;2.70;;;;;;;38.02;19.84;100756.75;105071;1263;59734;-87
2023/06/20 10:18:32;;;;;;;7.20;2.90;;;;;;;38.01;19.95;100754.38;105202;1266;59577;-88
2023/06/20 10:21:01;;;;;;;9.40;4.50;;;;;;;38.02;20.47;100754.34;105546;1265;64227;-86
2023/06/20 10:23:33;;;;;;;8.50;7.70;;;;;;;38.00;20.28;100751.59;106098;1254;59680;-90
2023/06/20 10:26:03;;;;;;;4.40;3.00;;;;;;;37.91;20.14;100756.50;105834;1254;71463;-86
2023/06/20 10:28:31;;;;;;;10.70;9.70;;;;;;;37.91;19.99;100757.93;106131;1257;59746;-86
2023/06/20 10:31:02;;;;;;;12.30;4.00;;;;;;;37.95;19.93;100756.84;106067;1256;59613;-86
2023/06/20 10:33:30;;;;;;;5.40;3.10;;;;;;;37.97;20.04;100760.94;105850;1255;63068;-87
2023/06/20 10:36:00;;;;;;;8.10;7.20;;;;;;;37.98;19.83;100758.77;105827;1253;59574;-88
2023/06/20 10:38:29;;;;;;;7.80;3.60;;;;;;;37.94;19.56;100760.12;105806;1255;72032;-87
2023/06/20 10:41:10;;;;;;;5.00;3.20;;;;;;;37.92;19.55;100757.59;105923;1254;59768;-91
2023/06/20 10:43:48;;;;;;;3.40;2.60;;;;;;;37.92;20.06;100758.15;106324;1254;59656;-86
2023/06/20 10:46:16;;;;;;;6.30;3.20;;;;;;;37.87;20.33;100758.08;106898;1257;66654;-86
2023/06/20 10:48:44;;;;;;;5.00;3.10;;;;;;;37.85;20.64;100751.95;106265;1254;59734;-89
2023/06/20 10:51:12;;;;;;;7.70;4.30;;;;;;;37.80;20.41;100754.02;105860;1257;65762;-87
2023/06/20 10:53:40;;;;;;;3.90;3.50;;;;;;;37.68;20.36;100752.46;105812;1254;59676;-89
2023/06/20 10:56:07;;;;;;;9.90;4.30;;;;;;;37.56;20.29;100750.98;105895;1253;59746;-92
2023/06/20 10:58:35;;;;;;;3.90;3.30;;;;;;;37.53;20.66;100749.86;105834;1254;64188;-89
2023/06/20 11:01:02;;;;;;;8.30;5.90;;;;;;;37.53;20.53;100749.43;105920;1254;59516;-89
2023/06/20 11:03:30;;;;;;;4.10;3.40;;;;;;;37.47;20.32;100746.89;107100;1257;64851;-85
2023/06/20 11:05:58;;;;;;;6.60;3.00;;;;;;;37.34;20.42;100745.36;106357;1259;59660;-87
2023/06/20 11:09:03;;;;;;;7.80;3.90;;;;;;;37.34;20.82;100738.75;102960;1295;605765;-87
2023/06/20 11:11:38;;;;;;;11.60;5.20;;;;;;;37.21;20.51;100734.55;105544;1265;59215;-86
2023/06/20 11:14:27;;;;;;;19.70;15.30;;;;;;;37.01;20.60;100738.80;105627;1262;59823;-88
2023/06/20 11:16:56;;;;;;;4.40;3.80;;;;;;;36.85;20.75;100738.21;105766;1259;63296;-89
2023/06/20 11:19:26;;;;;;;6.40;3.80;;;;;;;36.73;21.07;100733.23;107590;1258;59221;-85